sensor_id;sensor_type;location;lat;lon;timestamp;P1;durP1;ratioP1;P2;durP2;ratioP2
40669;SDS011;26355;45.528;9.234;2022-10-16T00:00:38;62.40;;;44.42;;
40669;SDS011;26355;45.528;9.234;2022-10-16T00:03:05;64.25;;;47.20;;
40669;SDS011;26355;45.528;9.234;2022-10-16T00:05:31;65.07;;;45.43;;
40669;SDS011;26355;45.528;9.234;2022-10-16T00:07:58;61.40;;;43.65;;
40669;SDS011;26355;45.528;9.234;2022-10-16T00:10:23;64.78;;;46.40;;
40669;SDS011;26355;45.528;9.234;2022-10-16T00:12:49;61.47;;;45.65;;
40669;SDS011;26355;45.528;9.234;2022-10-16T00:15:15;59.47;;;43.05;;
40669;SDS011;26355;45.528;9.234;2022-10-16T00:17:40;61.22;;;44.05;;
40669;SDS011;26355;45.528;9.234;2022-10-16T00:20:06;59.75;;;43.88;;
40669;SDS011;26355;45.528;9.234;2022-10-16T00:22:32;60.60;;;43.40;;
40669;SDS011;26355;45.528;9.234;2022-10-16T00:24:58;60.30;;;42.80;;
40669;SDS011;26355;45.528;9.234;2022-10-16T00:27:24;58.30;;;44.08;;
40669;SDS011;26355;45.528;9.234;2022-10-16T00:29:50;58.28;;;42.75;;
40669;SDS011;26355;45.528;9.234;2022-10-16T00:32:16;60.97;;;43.15;;
40669;SDS011;26355;45.528;9.234;2022-10-16T00:34:43;62.25;;;45.33;;
40669;SDS011;26355;45.528;9.234;2022-10-16T00:37:08;57.20;;;42.58;;
40669;SDS011;26355;45.528;9.234;2022-10-16T00:39:34;58.38;;;42.50;;
40669;SDS011;26355;45.528;9.234;2022-10-16T00:41:59;62.17;;;43.15;;
40669;SDS011;26355;45.528;9.234;2022-10-16T00:44:45;64.03;;;42.22;;
40669;SDS011;26355;45.528;9.234;2022-10-16T00:47:18;57.40;;;41.70;;
40669;SDS011;26355;45.528;9.234;2022-10-16T00:49:51;58.50;;;41.65;;
40669;SDS011;26355;45.528;9.234;2022-10-16T00:52:21;56.17;;;41.65;;
40669;SDS011;26355;45.528;9.234;2022-10-16T00:54:47;56.97;;;42.50;;
40669;SDS011;26355;45.528;9.234;2022-10-16T00:57:15;57.60;;;41.22;;
40669;SDS011;26355;45.528;9.234;2022-10-16T00:59:40;58.05;;;40.80;;
40669;SDS011;26355;45.528;9.234;2022-10-16T01:02:08;59.85;;;43.42;;
40669;SDS011;26355;45.528;9.234;2022-10-16T01:04:46;59.58;;;41.08;;
40669;SDS011;26355;45.528;9.234;2022-10-16T01:07:23;58.20;;;41.80;;
40669;SDS011;26355;45.528;9.234;2022-10-16T01:10:36;57.47;;;42.15;;
40669;SDS011;26355;45.528;9.234;2022-10-16T01:13:01;57.22;;;40.72;;
40669;SDS011;26355;45.528;9.234;2022-10-16T01:15:34;63.65;;;44.55;;
40669;SDS011;26355;45.528;9.234;2022-10-16T01:18:11;58.58;;;42.40;;
40669;SDS011;26355;45.528;9.234;2022-10-16T01:20:44;60.65;;;42.25;;
40669;SDS011;26355;45.528;9.234;2022-10-16T01:26:12;60.50;;;43.58;;
40669;SDS011;26355;45.528;9.234;2022-10-16T01:28:57;61.17;;;44.08;;
40669;SDS011;26355;45.528;9.234;2022-10-16T01:31:35;58.38;;;43.97;;
40669;SDS011;26355;45.528;9.234;2022-10-16T01:34:12;62.95;;;44.35;;
40669;SDS011;26355;45.528;9.234;2022-10-16T01:41:48;62.63;;;44.08;;
40669;SDS011;26355;45.528;9.234;2022-10-16T01:44:20;62.05;;;44.92;;
40669;SDS011;26355;45.528;9.234;2022-10-16T01:46:50;62.47;;;46.03;;
40669;SDS011;26355;45.528;9.234;2022-10-16T01:49:18;65.68;;;46.63;;
40669;SDS011;26355;45.528;9.234;2022-10-16T01:51:46;68.53;;;47.20;;
40669;SDS011;26355;45.528;9.234;2022-10-16T01:54:16;63.03;;;45.30;;
40669;SDS011;26355;45.528;9.234;2022-10-16T01:56:45;62.58;;;45.65;;
40669;SDS011;26355;45.528;9.234;2022-10-16T01:59:14;64.22;;;47.13;;
40669;SDS011;26355;45.528;9.234;2022-10-16T02:01:45;64.00;;;45.38;;
40669;SDS011;26355;45.528;9.234;2022-10-16T02:06:52;63.13;;;45.35;;
40669;SDS011;26355;45.528;9.234;2022-10-16T02:09:18;69.53;;;46.35;;
40669;SDS011;26355;45.528;9.234;2022-10-16T02:11:43;66.20;;;45.75;;
40669;SDS011;26355;45.528;9.234;2022-10-16T02:14:10;62.67;;;46.25;;
40669;SDS011;26355;45.528;9.234;2022-10-16T02:16:36;66.03;;;46.50;;
40669;SDS011;26355;45.528;9.234;2022-10-16T02:19:04;63.78;;;44.53;;
40669;SDS011;26355;45.528;9.234;2022-10-16T02:24:12;64.25;;;45.80;;
40669;SDS011;26355;45.528;9.234;2022-10-16T02:27:05;63.95;;;45.90;;
40669;SDS011;26355;45.528;9.234;2022-10-16T02:30:03;64.28;;;45.70;;
40669;SDS011;26355;45.528;9.234;2022-10-16T02:32:38;62.83;;;45.63;;
40669;SDS011;26355;45.528;9.234;2022-10-16T02:35:07;64.43;;;46.05;;
40669;SDS011;26355;45.528;9.234;2022-10-16T02:37:33;64.22;;;43.85;;
40669;SDS011;26355;45.528;9.234;2022-10-16T02:39:59;61.58;;;45.30;;
40669;SDS011;26355;45.528;9.234;2022-10-16T02:42:29;62.08;;;44.55;;
40669;SDS011;26355;45.528;9.234;2022-10-16T02:44:59;64.80;;;46.22;;
40669;SDS011;26355;45.528;9.234;2022-10-16T02:47:25;62.20;;;46.38;;
40669;SDS011;26355;45.528;9.234;2022-10-16T02:49:50;63.25;;;44.88;;
40669;SDS011;26355;45.528;9.234;2022-10-16T02:52:16;63.85;;;46.78;;
40669;SDS011;26355;45.528;9.234;2022-10-16T02:54:41;69.60;;;47.35;;
40669;SDS011;26355;45.528;9.234;2022-10-16T02:57:07;66.97;;;48.05;;
40669;SDS011;26355;45.528;9.234;2022-10-16T02:59:32;65.60;;;47.92;;
40669;SDS011;26355;45.528;9.234;2022-10-16T03:01:58;64.20;;;45.65;;
40669;SDS011;26355;45.528;9.234;2022-10-16T03:04:24;68.00;;;47.60;;
40669;SDS011;26355;45.528;9.234;2022-10-16T03:06:49;68.00;;;47.60;;
40669;SDS011;26355;45.528;9.234;2022-10-16T03:09:15;62.20;;;45.53;;
40669;SDS011;26355;45.528;9.234;2022-10-16T03:11:40;62.90;;;47.22;;
40669;SDS011;26355;45.528;9.234;2022-10-16T03:14:06;70.00;;;47.55;;
40669;SDS011;26355;45.528;9.234;2022-10-16T03:16:32;66.68;;;47.45;;
40669;SDS011;26355;45.528;9.234;2022-10-16T03:18:57;69.93;;;49.03;;
40669;SDS011;26355;45.528;9.234;2022-10-16T03:21:23;71.40;;;50.13;;
40669;SDS011;26355;45.528;9.234;2022-10-16T03:23:49;65.10;;;48.42;;
40669;SDS011;26355;45.528;9.234;2022-10-16T03:26:14;66.82;;;47.78;;
40669;SDS011;26355;45.528;9.234;2022-10-16T03:28:40;70.25;;;50.38;;
40669;SDS011;26355;45.528;9.234;2022-10-16T03:31:05;71.18;;;48.17;;
40669;SDS011;26355;45.528;9.234;2022-10-16T03:33:31;66.43;;;46.65;;
40669;SDS011;26355;45.528;9.234;2022-10-16T03:35:56;64.50;;;47.30;;
40669;SDS011;26355;45.528;9.234;2022-10-16T03:38:22;64.13;;;46.17;;
40669;SDS011;26355;45.528;9.234;2022-10-16T03:40:48;66.05;;;45.20;;
40669;SDS011;26355;45.528;9.234;2022-10-16T03:43:13;67.20;;;46.75;;
40669;SDS011;26355;45.528;9.234;2022-10-16T03:45:39;63.05;;;46.55;;
40669;SDS011;26355;45.528;9.234;2022-10-16T03:48:05;60.33;;;42.40;;
40669;SDS011;26355;45.528;9.234;2022-10-16T03:50:30;60.28;;;43.88;;
40669;SDS011;26355;45.528;9.234;2022-10-16T03:52:56;60.95;;;44.25;;
40669;SDS011;26355;45.528;9.234;2022-10-16T03:55:22;64.30;;;44.97;;
40669;SDS011;26355;45.528;9.234;2022-10-16T03:57:47;59.60;;;44.38;;
40669;SDS011;26355;45.528;9.234;2022-10-16T04:00:13;60.90;;;43.15;;
40669;SDS011;26355;45.528;9.234;2022-10-16T04:02:39;60.03;;;44.00;;
40669;SDS011;26355;45.528;9.234;2022-10-16T04:05:04;56.83;;;42.17;;
40669;SDS011;26355;45.528;9.234;2022-10-16T04:07:30;60.40;;;43.03;;
40669;SDS011;26355;45.528;9.234;2022-10-16T04:09:56;56.63;;;42.58;;
40669;SDS011;26355;45.528;9.234;2022-10-16T04:12:23;60.00;;;42.88;;
40669;SDS011;26355;45.528;9.234;2022-10-16T04:14:49;56.38;;;41.05;;
40669;SDS011;26355;45.528;9.234;2022-10-16T04:17:15;56.97;;;41.90;;
40669;SDS011;26355;45.528;9.234;2022-10-16T04:19:41;56.83;;;42.63;;
40669;SDS011;26355;45.528;9.234;2022-10-16T04:22:06;56.47;;;39.42;;
40669;SDS011;26355;45.528;9.234;2022-10-16T04:24:32;57.40;;;40.42;;
40669;SDS011;26355;45.528;9.234;2022-10-16T04:26:58;56.30;;;43.45;;
40669;SDS011;26355;45.528;9.234;2022-10-16T04:29:23;59.22;;;43.30;;
40669;SDS011;26355;45.528;9.234;2022-10-16T04:31:49;59.58;;;42.67;;
40669;SDS011;26355;45.528;9.234;2022-10-16T04:34:14;57.28;;;42.03;;
40669;SDS011;26355;45.528;9.234;2022-10-16T04:36:40;58.33;;;42.95;;
40669;SDS011;26355;45.528;9.234;2022-10-16T04:39:06;58.53;;;42.78;;
40669;SDS011;26355;45.528;9.234;2022-10-16T04:41:31;54.70;;;38.63;;
40669;SDS011;26355;45.528;9.234;2022-10-16T04:43:57;56.08;;;40.65;;
40669;SDS011;26355;45.528;9.234;2022-10-16T04:46:22;57.13;;;40.60;;
40669;SDS011;26355;45.528;9.234;2022-10-16T04:48:48;57.78;;;40.05;;
40669;SDS011;26355;45.528;9.234;2022-10-16T04:51:13;58.65;;;40.55;;
40669;SDS011;26355;45.528;9.234;2022-10-16T04:53:39;59.30;;;38.63;;
40669;SDS011;26355;45.528;9.234;2022-10-16T04:56:05;51.40;;;38.33;;
40669;SDS011;26355;45.528;9.234;2022-10-16T04:58:30;55.03;;;39.83;;
40669;SDS011;26355;45.528;9.234;2022-10-16T05:00:56;55.78;;;39.97;;
40669;SDS011;26355;45.528;9.234;2022-10-16T05:03:21;52.65;;;38.38;;
40669;SDS011;26355;45.528;9.234;2022-10-16T05:05:47;52.15;;;37.90;;
40669;SDS011;26355;45.528;9.234;2022-10-16T05:08:13;52.47;;;38.45;;
40669;SDS011;26355;45.528;9.234;2022-10-16T05:13:06;53.40;;;38.50;;
40669;SDS011;26355;45.528;9.234;2022-10-16T05:15:32;53.58;;;39.70;;
40669;SDS011;26355;45.528;9.234;2022-10-16T05:17:58;54.33;;;37.53;;
40669;SDS011;26355;45.528;9.234;2022-10-16T05:20:23;56.17;;;39.50;;
40669;SDS011;26355;45.528;9.234;2022-10-16T05:22:49;51.83;;;37.53;;
40669;SDS011;26355;45.528;9.234;2022-10-16T05:25:15;51.85;;;36.75;;
40669;SDS011;26355;45.528;9.234;2022-10-16T05:27:40;51.90;;;36.78;;
40669;SDS011;26355;45.528;9.234;2022-10-16T05:30:06;49.80;;;35.30;;
40669;SDS011;26355;45.528;9.234;2022-10-16T05:32:32;50.50;;;37.13;;
40669;SDS011;26355;45.528;9.234;2022-10-16T05:34:58;49.13;;;36.42;;
40669;SDS011;26355;45.528;9.234;2022-10-16T05:37:24;45.80;;;33.77;;
40669;SDS011;26355;45.528;9.234;2022-10-16T05:39:52;47.17;;;35.65;;
40669;SDS011;26355;45.528;9.234;2022-10-16T05:42:17;46.40;;;35.47;;
40669;SDS011;26355;45.528;9.234;2022-10-16T05:44:43;46.92;;;34.38;;
40669;SDS011;26355;45.528;9.234;2022-10-16T05:47:09;43.80;;;32.67;;
40669;SDS011;26355;45.528;9.234;2022-10-16T05:49:35;45.60;;;32.15;;
40669;SDS011;26355;45.528;9.234;2022-10-16T05:52:01;42.78;;;32.33;;
40669;SDS011;26355;45.528;9.234;2022-10-16T05:54:29;46.13;;;31.55;;
40669;SDS011;26355;45.528;9.234;2022-10-16T05:56:55;43.55;;;31.05;;
40669;SDS011;26355;45.528;9.234;2022-10-16T05:59:20;43.35;;;30.67;;
40669;SDS011;26355;45.528;9.234;2022-10-16T06:01:46;41.45;;;31.02;;
40669;SDS011;26355;45.528;9.234;2022-10-16T06:04:11;43.47;;;30.90;;
40669;SDS011;26355;45.528;9.234;2022-10-16T06:06:37;42.28;;;30.52;;
40669;SDS011;26355;45.528;9.234;2022-10-16T06:09:03;45.17;;;32.88;;
40669;SDS011;26355;45.528;9.234;2022-10-16T06:11:30;43.10;;;32.05;;
40669;SDS011;26355;45.528;9.234;2022-10-16T06:13:57;43.90;;;32.10;;
40669;SDS011;26355;45.528;9.234;2022-10-16T06:16:26;44.90;;;30.83;;
40669;SDS011;26355;45.528;9.234;2022-10-16T06:18:53;40.63;;;30.92;;
40669;SDS011;26355;45.528;9.234;2022-10-16T06:21:21;41.85;;;30.75;;
40669;SDS011;26355;45.528;9.234;2022-10-16T06:23:50;47.33;;;32.40;;
40669;SDS011;26355;45.528;9.234;2022-10-16T06:26:18;44.70;;;30.05;;
40669;SDS011;26355;45.528;9.234;2022-10-16T06:28:46;41.58;;;29.00;;
40669;SDS011;26355;45.528;9.234;2022-10-16T06:31:12;41.47;;;30.60;;
40669;SDS011;26355;45.528;9.234;2022-10-16T06:33:38;45.75;;;31.50;;
40669;SDS011;26355;45.528;9.234;2022-10-16T06:36:05;43.10;;;29.60;;
40669;SDS011;26355;45.528;9.234;2022-10-16T06:38:33;42.05;;;31.63;;
40669;SDS011;26355;45.528;9.234;2022-10-16T06:40:59;39.85;;;29.10;;
40669;SDS011;26355;45.528;9.234;2022-10-16T06:43:24;41.38;;;30.27;;
40669;SDS011;26355;45.528;9.234;2022-10-16T06:45:51;41.47;;;30.55;;
40669;SDS011;26355;45.528;9.234;2022-10-16T06:50:43;41.30;;;29.20;;
40669;SDS011;26355;45.528;9.234;2022-10-16T06:53:09;40.38;;;30.60;;
40669;SDS011;26355;45.528;9.234;2022-10-16T06:55:34;43.90;;;29.25;;
40669;SDS011;26355;45.528;9.234;2022-10-16T06:58:00;43.92;;;30.20;;
40669;SDS011;26355;45.528;9.234;2022-10-16T07:00:25;40.95;;;30.33;;
40669;SDS011;26355;45.528;9.234;2022-10-16T07:02:51;39.75;;;29.63;;
40669;SDS011;26355;45.528;9.234;2022-10-16T07:05:17;41.67;;;29.83;;
40669;SDS011;26355;45.528;9.234;2022-10-16T07:07:42;40.47;;;29.50;;
40669;SDS011;26355;45.528;9.234;2022-10-16T07:10:08;40.40;;;29.40;;
40669;SDS011;26355;45.528;9.234;2022-10-16T07:12:33;47.63;;;32.00;;
40669;SDS011;26355;45.528;9.234;2022-10-16T07:14:59;42.90;;;30.23;;
40669;SDS011;26355;45.528;9.234;2022-10-16T07:17:25;43.65;;;29.73;;
40669;SDS011;26355;45.528;9.234;2022-10-16T07:19:50;40.33;;;28.77;;
40669;SDS011;26355;45.528;9.234;2022-10-16T07:24:43;44.35;;;29.90;;
40669;SDS011;26355;45.528;9.234;2022-10-16T07:27:09;39.75;;;28.60;;
40669;SDS011;26355;45.528;9.234;2022-10-16T07:29:35;39.70;;;27.75;;
40669;SDS011;26355;45.528;9.234;2022-10-16T07:32:01;40.03;;;28.75;;
40669;SDS011;26355;45.528;9.234;2022-10-16T07:34:27;40.40;;;29.70;;
40669;SDS011;26355;45.528;9.234;2022-10-16T07:36:52;39.97;;;27.45;;
40669;SDS011;26355;45.528;9.234;2022-10-16T07:39:18;37.92;;;27.73;;
40669;SDS011;26355;45.528;9.234;2022-10-16T07:41:44;40.90;;;28.25;;
40669;SDS011;26355;45.528;9.234;2022-10-16T07:44:10;40.22;;;27.23;;
40669;SDS011;26355;45.528;9.234;2022-10-16T07:46:36;39.40;;;27.88;;
40669;SDS011;26355;45.528;9.234;2022-10-16T07:49:02;37.65;;;26.38;;
40669;SDS011;26355;45.528;9.234;2022-10-16T07:51:28;38.83;;;27.63;;
40669;SDS011;26355;45.528;9.234;2022-10-16T07:53:54;37.97;;;26.83;;
40669;SDS011;26355;45.528;9.234;2022-10-16T07:56:20;40.97;;;27.42;;
40669;SDS011;26355;45.528;9.234;2022-10-16T07:58:46;36.15;;;26.67;;
40669;SDS011;26355;45.528;9.234;2022-10-16T08:01:12;39.92;;;26.98;;
40669;SDS011;26355;45.528;9.234;2022-10-16T08:03:46;38.38;;;27.42;;
40669;SDS011;26355;45.528;9.234;2022-10-16T08:06:14;38.25;;;26.63;;
40669;SDS011;26355;45.528;9.234;2022-10-16T08:08:40;36.00;;;26.42;;
40669;SDS011;26355;45.528;9.234;2022-10-16T08:11:06;38.53;;;26.70;;
40669;SDS011;26355;45.528;9.234;2022-10-16T08:13:32;37.03;;;25.45;;
40669;SDS011;26355;45.528;9.234;2022-10-16T08:15:57;37.13;;;26.08;;
40669;SDS011;26355;45.528;9.234;2022-10-16T08:18:23;36.97;;;26.13;;
40669;SDS011;26355;45.528;9.234;2022-10-16T08:20:54;37.67;;;26.48;;
40669;SDS011;26355;45.528;9.234;2022-10-16T08:23:22;36.78;;;25.58;;
40669;SDS011;26355;45.528;9.234;2022-10-16T08:25:47;41.78;;;27.55;;
40669;SDS011;26355;45.528;9.234;2022-10-16T08:28:13;37.15;;;25.85;;
40669;SDS011;26355;45.528;9.234;2022-10-16T08:30:38;37.05;;;26.90;;
40669;SDS011;26355;45.528;9.234;2022-10-16T08:33:05;38.78;;;26.58;;
40669;SDS011;26355;45.528;9.234;2022-10-16T08:35:31;36.88;;;25.42;;
40669;SDS011;26355;45.528;9.234;2022-10-16T08:37:57;38.25;;;26.23;;
40669;SDS011;26355;45.528;9.234;2022-10-16T08:40:24;38.97;;;27.38;;
40669;SDS011;26355;45.528;9.234;2022-10-16T08:45:25;39.15;;;27.35;;
40669;SDS011;26355;45.528;9.234;2022-10-16T08:48:11;50.13;;;30.58;;
40669;SDS011;26355;45.528;9.234;2022-10-16T08:50:46;43.10;;;29.63;;
40669;SDS011;26355;45.528;9.234;2022-10-16T08:53:22;47.67;;;32.53;;
40669;SDS011;26355;45.528;9.234;2022-10-16T08:55:56;45.45;;;32.63;;
40669;SDS011;26355;45.528;9.234;2022-10-16T08:58:26;46.90;;;31.70;;
40669;SDS011;26355;45.528;9.234;2022-10-16T09:00:54;48.53;;;32.28;;
40669;SDS011;26355;45.528;9.234;2022-10-16T09:03:23;47.10;;;31.80;;
40669;SDS011;26355;45.528;9.234;2022-10-16T09:08:50;51.25;;;36.17;;
40669;SDS011;26355;45.528;9.234;2022-10-16T09:16:35;47.50;;;34.20;;
40669;SDS011;26355;45.528;9.234;2022-10-16T09:21:38;55.17;;;37.08;;
40669;SDS011;26355;45.528;9.234;2022-10-16T09:26:40;58.30;;;42.15;;
40669;SDS011;26355;45.528;9.234;2022-10-16T09:29:06;56.65;;;39.83;;
40669;SDS011;26355;45.528;9.234;2022-10-16T09:31:35;53.70;;;37.70;;
40669;SDS011;26355;45.528;9.234;2022-10-16T09:34:02;52.78;;;37.97;;
40669;SDS011;26355;45.528;9.234;2022-10-16T09:36:31;65.65;;;43.45;;
40669;SDS011;26355;45.528;9.234;2022-10-16T09:39:05;59.30;;;43.10;;
40669;SDS011;26355;45.528;9.234;2022-10-16T09:41:37;59.88;;;42.33;;
40669;SDS011;26355;45.528;9.234;2022-10-16T09:44:06;62.45;;;42.85;;
40669;SDS011;26355;45.528;9.234;2022-10-16T09:46:46;62.05;;;42.60;;
40669;SDS011;26355;45.528;9.234;2022-10-16T09:49:30;55.95;;;39.33;;
40669;SDS011;26355;45.528;9.234;2022-10-16T09:52:14;64.18;;;44.58;;
40669;SDS011;26355;45.528;9.234;2022-10-16T09:54:56;63.53;;;43.00;;
40669;SDS011;26355;45.528;9.234;2022-10-16T09:57:23;61.38;;;43.45;;
40669;SDS011;26355;45.528;9.234;2022-10-16T09:59:50;65.82;;;44.28;;
40669;SDS011;26355;45.528;9.234;2022-10-16T10:02:36;61.63;;;43.35;;
40669;SDS011;26355;45.528;9.234;2022-10-16T10:05:04;61.78;;;43.28;;
40669;SDS011;26355;45.528;9.234;2022-10-16T10:07:39;64.03;;;44.65;;
40669;SDS011;26355;45.528;9.234;2022-10-16T10:10:44;64.80;;;43.60;;
40669;SDS011;26355;45.528;9.234;2022-10-16T10:13:16;63.88;;;43.95;;
40669;SDS011;26355;45.528;9.234;2022-10-16T10:15:46;62.25;;;42.95;;
40669;SDS011;26355;45.528;9.234;2022-10-16T10:18:19;61.70;;;42.00;;
40669;SDS011;26355;45.528;9.234;2022-10-16T10:20:56;61.00;;;41.78;;
40669;SDS011;26355;45.528;9.234;2022-10-16T10:23:24;62.35;;;43.65;;
40669;SDS011;26355;45.528;9.234;2022-10-16T10:28:42;63.28;;;41.65;;
40669;SDS011;26355;45.528;9.234;2022-10-16T10:31:33;66.40;;;43.10;;
40669;SDS011;26355;45.528;9.234;2022-10-16T10:36:48;67.03;;;45.53;;
40669;SDS011;26355;45.528;9.234;2022-10-16T10:39:32;66.13;;;46.15;;
40669;SDS011;26355;45.528;9.234;2022-10-16T10:42:12;69.40;;;46.92;;
40669;SDS011;26355;45.528;9.234;2022-10-16T10:47:26;69.45;;;46.88;;
40669;SDS011;26355;45.528;9.234;2022-10-16T10:50:13;64.55;;;44.67;;
40669;SDS011;26355;45.528;9.234;2022-10-16T10:52:59;67.95;;;47.70;;
40669;SDS011;26355;45.528;9.234;2022-10-16T10:55:33;68.57;;;47.05;;
40669;SDS011;26355;45.528;9.234;2022-10-16T11:06:16;70.32;;;46.85;;
40669;SDS011;26355;45.528;9.234;2022-10-16T11:09:31;73.25;;;47.60;;
40669;SDS011;26355;45.528;9.234;2022-10-16T11:11:44;69.35;;;45.55;;
40669;SDS011;26355;45.528;9.234;2022-10-16T11:14:28;71.15;;;48.35;;
40669;SDS011;26355;45.528;9.234;2022-10-16T11:17:13;68.85;;;48.20;;
40669;SDS011;26355;45.528;9.234;2022-10-16T11:22:49;71.45;;;49.60;;
40669;SDS011;26355;45.528;9.234;2022-10-16T11:25:42;74.05;;;49.47;;
40669;SDS011;26355;45.528;9.234;2022-10-16T11:31:02;73.25;;;48.15;;
40669;SDS011;26355;45.528;9.234;2022-10-16T11:36:31;73.97;;;46.72;;
40669;SDS011;26355;45.528;9.234;2022-10-16T11:41:42;71.43;;;49.40;;
40669;SDS011;26355;45.528;9.234;2022-10-16T11:46:51;72.95;;;49.90;;
40669;SDS011;26355;45.528;9.234;2022-10-16T11:49:37;75.93;;;49.83;;
40669;SDS011;26355;45.528;9.234;2022-10-16T11:52:26;80.88;;;53.80;;
40669;SDS011;26355;45.528;9.234;2022-10-16T11:55:17;76.68;;;51.60;;
40669;SDS011;26355;45.528;9.234;2022-10-16T11:57:57;73.20;;;50.17;;
40669;SDS011;26355;45.528;9.234;2022-10-16T12:00:46;71.95;;;50.53;;
40669;SDS011;26355;45.528;9.234;2022-10-16T12:03:27;72.72;;;49.45;;
40669;SDS011;26355;45.528;9.234;2022-10-16T12:06:01;67.18;;;48.45;;
40669;SDS011;26355;45.528;9.234;2022-10-16T12:08:51;68.65;;;48.22;;
40669;SDS011;26355;45.528;9.234;2022-10-16T12:16:30;61.95;;;42.58;;
40669;SDS011;26355;45.528;9.234;2022-10-16T12:19:29;65.45;;;45.22;;
40669;SDS011;26355;45.528;9.234;2022-10-16T12:21:49;63.88;;;44.05;;
40669;SDS011;26355;45.528;9.234;2022-10-16T12:26:51;55.95;;;39.17;;
40669;SDS011;26355;45.528;9.234;2022-10-16T12:29:22;57.77;;;40.07;;
40669;SDS011;26355;45.528;9.234;2022-10-16T12:32:06;59.55;;;40.10;;
40669;SDS011;26355;45.528;9.234;2022-10-16T12:37:21;61.97;;;44.60;;
40669;SDS011;26355;45.528;9.234;2022-10-16T12:40:15;57.83;;;41.83;;
40669;SDS011;26355;45.528;9.234;2022-10-16T12:42:47;61.90;;;40.63;;
40669;SDS011;26355;45.528;9.234;2022-10-16T12:45:34;61.08;;;41.92;;
40669;SDS011;26355;45.528;9.234;2022-10-16T12:48:00;59.50;;;42.13;;
40669;SDS011;26355;45.528;9.234;2022-10-16T12:52:58;61.10;;;43.38;;
40669;SDS011;26355;45.528;9.234;2022-10-16T12:55:25;58.63;;;41.92;;
40669;SDS011;26355;45.528;9.234;2022-10-16T13:01:00;61.78;;;41.88;;
40669;SDS011;26355;45.528;9.234;2022-10-16T13:06:19;67.75;;;46.03;;
40669;SDS011;26355;45.528;9.234;2022-10-16T13:09:13;63.13;;;44.45;;
40669;SDS011;26355;45.528;9.234;2022-10-16T13:14:56;64.85;;;44.97;;
40669;SDS011;26355;45.528;9.234;2022-10-16T13:18:05;62.20;;;45.83;;
40669;SDS011;26355;45.528;9.234;2022-10-16T13:23:32;64.93;;;46.45;;
40669;SDS011;26355;45.528;9.234;2022-10-16T13:28:59;60.80;;;45.42;;
40669;SDS011;26355;45.528;9.234;2022-10-16T13:31:26;64.57;;;45.58;;
40669;SDS011;26355;45.528;9.234;2022-10-16T13:33:53;63.10;;;45.38;;
40669;SDS011;26355;45.528;9.234;2022-10-16T13:36:25;59.45;;;43.13;;
40669;SDS011;26355;45.528;9.234;2022-10-16T13:38:59;64.70;;;47.38;;
40669;SDS011;26355;45.528;9.234;2022-10-16T13:41:32;65.78;;;45.80;;
40669;SDS011;26355;45.528;9.234;2022-10-16T13:43:58;64.03;;;47.13;;
40669;SDS011;26355;45.528;9.234;2022-10-16T13:46:24;62.47;;;47.28;;
40669;SDS011;26355;45.528;9.234;2022-10-16T13:48:58;59.10;;;44.28;;
40669;SDS011;26355;45.528;9.234;2022-10-16T13:51:24;62.85;;;45.25;;
40669;SDS011;26355;45.528;9.234;2022-10-16T13:53:50;65.15;;;47.58;;
40669;SDS011;26355;45.528;9.234;2022-10-16T13:56:18;59.17;;;44.65;;
40669;SDS011;26355;45.528;9.234;2022-10-16T13:58:46;63.70;;;47.10;;
40669;SDS011;26355;45.528;9.234;2022-10-16T14:01:23;74.10;;;49.70;;
40669;SDS011;26355;45.528;9.234;2022-10-16T14:03:51;67.35;;;47.05;;
40669;SDS011;26355;45.528;9.234;2022-10-16T14:06:20;66.80;;;46.90;;
40669;SDS011;26355;45.528;9.234;2022-10-16T14:08:54;62.10;;;44.58;;
40669;SDS011;26355;45.528;9.234;2022-10-16T14:11:25;63.20;;;46.15;;
40669;SDS011;26355;45.528;9.234;2022-10-16T14:13:51;70.55;;;47.45;;
40669;SDS011;26355;45.528;9.234;2022-10-16T14:16:19;63.97;;;46.45;;
40669;SDS011;26355;45.528;9.234;2022-10-16T14:21:47;61.72;;;44.83;;
40669;SDS011;26355;45.528;9.234;2022-10-16T14:24:22;64.28;;;46.47;;
40669;SDS011;26355;45.528;9.234;2022-10-16T14:26:51;57.92;;;42.13;;
40669;SDS011;26355;45.528;9.234;2022-10-16T14:29:20;57.45;;;41.60;;
40669;SDS011;26355;45.528;9.234;2022-10-16T14:31:56;60.00;;;43.20;;
40669;SDS011;26355;45.528;9.234;2022-10-16T14:34:33;57.97;;;42.38;;
40669;SDS011;26355;45.528;9.234;2022-10-16T14:37:01;60.03;;;42.95;;
40669;SDS011;26355;45.528;9.234;2022-10-16T14:39:34;58.30;;;40.60;;
40669;SDS011;26355;45.528;9.234;2022-10-16T14:42:00;54.88;;;40.38;;
40669;SDS011;26355;45.528;9.234;2022-10-16T14:44:28;54.38;;;39.22;;
40669;SDS011;26355;45.528;9.234;2022-10-16T14:46:56;55.33;;;39.53;;
40669;SDS011;26355;45.528;9.234;2022-10-16T14:49:24;81.53;;;51.60;;
40669;SDS011;26355;45.528;9.234;2022-10-16T14:51:50;60.08;;;42.17;;
40669;SDS011;26355;45.528;9.234;2022-10-16T14:54:17;69.95;;;49.08;;
40669;SDS011;26355;45.528;9.234;2022-10-16T14:56:51;65.22;;;46.03;;
40669;SDS011;26355;45.528;9.234;2022-10-16T14:59:21;58.78;;;41.33;;
40669;SDS011;26355;45.528;9.234;2022-10-16T15:02:25;66.40;;;43.00;;
40669;SDS011;26355;45.528;9.234;2022-10-16T15:04:54;55.42;;;39.75;;
40669;SDS011;26355;45.528;9.234;2022-10-16T15:07:20;56.75;;;39.58;;
40669;SDS011;26355;45.528;9.234;2022-10-16T15:09:46;54.63;;;38.40;;
40669;SDS011;26355;45.528;9.234;2022-10-16T15:12:12;54.85;;;40.03;;
40669;SDS011;26355;45.528;9.234;2022-10-16T15:14:37;53.72;;;37.53;;
40669;SDS011;26355;45.528;9.234;2022-10-16T15:17:03;53.13;;;38.25;;
40669;SDS011;26355;45.528;9.234;2022-10-16T15:19:29;53.22;;;38.63;;
40669;SDS011;26355;45.528;9.234;2022-10-16T15:21:55;58.67;;;42.38;;
40669;SDS011;26355;45.528;9.234;2022-10-16T15:24:20;61.10;;;43.92;;
40669;SDS011;26355;45.528;9.234;2022-10-16T15:26:46;56.83;;;41.88;;
40669;SDS011;26355;45.528;9.234;2022-10-16T15:29:12;55.45;;;41.33;;
40669;SDS011;26355;45.528;9.234;2022-10-16T15:31:38;54.53;;;41.10;;
40669;SDS011;26355;45.528;9.234;2022-10-16T15:34:03;57.40;;;40.75;;
40669;SDS011;26355;45.528;9.234;2022-10-16T15:36:34;56.97;;;41.30;;
40669;SDS011;26355;45.528;9.234;2022-10-16T15:39:15;51.17;;;39.08;;
40669;SDS011;26355;45.528;9.234;2022-10-16T15:41:42;54.70;;;40.58;;
40669;SDS011;26355;45.528;9.234;2022-10-16T15:44:09;55.15;;;38.90;;
40669;SDS011;26355;45.528;9.234;2022-10-16T15:46:35;53.38;;;40.88;;
40669;SDS011;26355;45.528;9.234;2022-10-16T15:49:02;54.88;;;39.63;;
40669;SDS011;26355;45.528;9.234;2022-10-16T15:51:27;57.20;;;40.13;;
40669;SDS011;26355;45.528;9.234;2022-10-16T15:53:55;54.08;;;39.28;;
40669;SDS011;26355;45.528;9.234;2022-10-16T15:56:21;53.28;;;39.97;;
40669;SDS011;26355;45.528;9.234;2022-10-16T15:58:50;55.70;;;40.08;;
40669;SDS011;26355;45.528;9.234;2022-10-16T16:01:16;49.58;;;37.10;;
40669;SDS011;26355;45.528;9.234;2022-10-16T16:03:42;53.97;;;39.00;;
40669;SDS011;26355;45.528;9.234;2022-10-16T16:06:10;55.30;;;37.15;;
40669;SDS011;26355;45.528;9.234;2022-10-16T16:08:37;52.10;;;37.72;;
40669;SDS011;26355;45.528;9.234;2022-10-16T16:15:56;50.05;;;35.80;;
40669;SDS011;26355;45.528;9.234;2022-10-16T16:18:21;54.53;;;41.17;;